Time,TemperatureF,DewpointF,PressureIn,WindDirection,WindDirectionDegrees,WindSpeedMPH,WindSpeedGustMPH,Humidity,HourlyPrecipIn,Conditions,Clouds,dailyrainin,SolarRadiationWatts/m^2,SoftwareType,DateUTC
2013-02-21 00:11:00,51.7,34.0,29.97,East,96,0.0,9.0,52,0.00,,,0.00,0,weatherlink.com 1.10,2013-02-21 06:11:00,
2013-02-21 00:26:00,51.5,34.0,29.96,East,96,1.0,11.0,52,0.00,,,0.00,0,weatherlink.com 1.10,2013-02-21 06:26:00,
2013-02-21 00:41:00,51.4,35.0,29.96,SE,125,2.0,9.0,53,0.00,,,0.00,0,weatherlink.com 1.10,2013-02-21 06:41:00,
2013-02-21 00:56:00,51.2,34.0,29.94,ENE,77,5.0,11.0,53,0.00,,,0.00,0,weatherlink.com 1.10,2013-02-21 06:56:00,
2013-02-21 01:11:00,51.1,34.0,29.94,East,101,5.0,6.0,53,0.00,,,0.00,0,weatherlink.com 1.10,2013-02-21 07:11:00,
2013-02-21 01:26:00,50.9,34.0,29.93,SE,126,0.0,9.0,52,0.00,,,0.00,0,weatherlink.com 1.10,2013-02-21 07:26:00,
2013-02-21 01:41:00,50.8,34.0,29.92,East,85,5.0,8.0,52,0.00,,,0.00,0,weatherlink.com 1.10,2013-02-21 07:41:00,
2013-02-21 01:56:00,50.7,33.0,29.93,East,96,4.0,9.0,52,0.00,,,0.00,0,weatherlink.com 1.10,2013-02-21 07:56:00,
2013-02-21 02:11:00,50.6,33.0,29.92,ESE,115,5.0,7.0,52,0.00,,,0.00,0,weatherlink.com 1.10,2013-02-21 08:11:00,
2013-02-21 02:26:00,50.6,34.0,29.93,SE,125,4.0,6.0,54,0.00,,,0.00,0,weatherlink.com 1.10,2013-02-21 08:26:00,
2013-02-21 02:41:00,50.6,34.0,29.92,ENE,65,3.0,10.0,53,0.00,,,0.00,0,weatherlink.com 1.10,2013-02-21 08:41:00,
2013-02-21 02:56:00,50.5,34.0,29.92,SE,126,0.0,5.0,54,0.00,,,0.00,0,weatherlink.com 1.10,2013-02-21 08:56:00,
2013-02-21 03:11:00,50.5,34.0,29.92,ESE,115,0.0,8.0,54,0.00,,,0.00,0,weatherlink.com 1.10,2013-02-21 09:11:00,
2013-02-21 03:26:00,50.4,35.0,29.92,SE,127,0.0,4.0,55,0.00,,,0.00,0,weatherlink.com 1.10,2013-02-21 09:26:00,
2013-02-21 03:41:00,50.3,35.0,29.91,East,100,0.0,5.0,57,0.00,,,0.00,0,weatherlink.com 1.10,2013-02-21 09:41:00,
2013-02-21 03:56:00,50.1,35.0,29.90,East,84,2.0,5.0,57,0.00,,,0.00,0,weatherlink.com 1.10,2013-02-21 09:56:00,
2013-02-21 04:11:00,50.0,35.0,29.89,NE,34,0.0,6.0,57,0.00,,,0.00,0,weatherlink.com 1.10,2013-02-21 10:11:00,
2013-02-21 04:26:00,49.9,35.0,29.89,ESE,117,2.0,7.0,56,0.00,,,0.00,0,weatherlink.com 1.10,2013-02-21 10:26:00,
2013-02-21 04:41:00,50.0,35.0,29.90,SE,144,3.0,7.0,57,0.00,,,0.00,0,weatherlink.com 1.10,2013-02-21 10:41:00,
2013-02-21 04:56:00,50.0,35.0,29.90,SE,126,0.0,7.0,57,0.00,,,0.00,0,weatherlink.com 1.10,2013-02-21 10:56:00,
2013-02-21 05:12:00,50.0,35.0,29.89,ESE,113,3.0,8.0,57,0.00,,,0.00,0,weatherlink.com 1.10,2013-02-21 11:12:00,
2013-02-21 05:26:00,50.2,35.0,29.88,SE,134,5.0,8.0,57,0.00,,,0.00,0,weatherlink.com 1.10,2013-02-21 11:26:00,
2013-02-21 05:42:00,50.1,35.0,29.88,ESE,112,4.0,9.0,57,0.00,,,0.00,0,weatherlink.com 1.10,2013-02-21 11:42:00,
2013-02-21 05:57:00,50.2,36.0,29.87,SE,131,0.0,10.0,59,0.00,,,0.00,0,weatherlink.com 1.10,2013-02-21 11:57:00,
2013-02-21 06:12:00,50.6,37.0,29.88,ESE,114,2.0,13.0,59,0.00,,,0.00,0,weatherlink.com 1.10,2013-02-21 12:12:00,
2013-02-21 06:26:00,50.8,37.0,29.89,East,101,1.0,8.0,60,0.00,,,0.00,0,weatherlink.com 1.10,2013-02-21 12:26:00,
2013-02-21 06:42:00,50.8,38.0,29.88,SE,127,4.0,7.0,61,0.00,,,0.00,0,weatherlink.com 1.10,2013-02-21 12:42:00,
2013-02-21 06:57:00,50.7,37.0,29.88,ESE,102,0.0,6.0,60,0.00,,,0.00,0,weatherlink.com 1.10,2013-02-21 12:57:00,
2013-02-21 07:12:00,50.4,38.0,29.88,ESE,109,4.0,11.0,63,0.00,,,0.00,11,weatherlink.com 1.10,2013-02-21 13:12:00,
2013-02-21 07:27:00,50.0,38.0,29.86,SE,127,1.0,12.0,64,0.00,,,0.00,11,weatherlink.com 1.10,2013-02-21 13:27:00,
2013-02-21 07:42:00,49.9,39.0,29.84,SE,142,6.0,12.0,66,0.00,,,0.00,16,weatherlink.com 1.10,2013-02-21 13:42:00,
2013-02-21 07:57:00,49.1,40.0,29.84,ESE,106,4.0,13.0,70,0.00,,,0.00,44,weatherlink.com 1.10,2013-02-21 13:57:00,
2013-02-21 08:12:00,49.2,40.0,29.82,ESE,107,13.0,18.0,71,0.00,,,0.00,44,weatherlink.com 1.10,2013-02-21 14:12:00,
2013-02-21 08:27:00,49.8,41.0,29.83,SSE,158,9.0,11.0,72,0.00,,,0.00,14,weatherlink.com 1.10,2013-02-21 14:27:00,
2013-02-21 08:42:00,49.9,42.0,29.81,SE,137,7.0,14.0,75,0.00,,,0.00,83,weatherlink.com 1.10,2013-02-21 14:42:00,
2013-02-21 08:57:00,51.6,45.0,29.82,SE,132,6.0,13.0,77,0.00,,,0.00,128,weatherlink.com 1.10,2013-02-21 14:57:00,
2013-02-21 09:12:00,53.0,45.0,29.84,South,188,7.0,12.0,75,0.00,,,0.00,53,weatherlink.com 1.10,2013-02-21 15:12:00,
2013-02-21 09:27:00,53.7,46.0,29.83,SE,144,5.0,13.0,76,0.00,,,0.00,49,weatherlink.com 1.10,2013-02-21 15:27:00,
2013-02-21 09:42:00,54.3,47.0,29.82,NE,53,0.0,9.0,76,0.00,,,0.00,109,weatherlink.com 1.10,2013-02-21 15:42:00,
2013-02-21 09:57:00,55.7,49.0,29.81,SSE,158,6.0,15.0,77,0.00,,,0.00,120,weatherlink.com 1.10,2013-02-21 15:57:00,
2013-02-21 10:12:00,57.3,50.0,29.80,SE,146,2.0,14.0,77,0.00,,,0.00,91,weatherlink.com 1.10,2013-02-21 16:12:00,
2013-02-21 10:27:00,59.0,52.0,29.79,South,169,6.0,22.0,77,0.00,,,0.00,132,weatherlink.com 1.10,2013-02-21 16:27:00,
2013-02-21 10:42:00,60.5,53.0,29.78,SSE,154,6.0,16.0,75,0.00,,,0.00,279,weatherlink.com 1.10,2013-02-21 16:42:00,
2013-02-21 10:57:00,62.1,54.0,29.78,SSE,154,7.0,16.0,75,0.00,,,0.00,211,weatherlink.com 1.10,2013-02-21 16:57:00,
2013-02-21 11:13:00,62.7,54.0,29.79,South,185,9.0,16.0,74,0.00,,,0.00,104,weatherlink.com 1.10,2013-02-21 17:13:00,
2013-02-21 11:27:00,63.4,55.0,29.77,SSE,155,7.0,15.0,75,0.00,,,0.00,116,weatherlink.com 1.10,2013-02-21 17:27:00,
2013-02-21 11:42:00,63.3,55.0,29.77,North,4,7.0,18.0,75,0.00,,,0.00,86,weatherlink.com 1.10,2013-02-21 17:42:00,
2013-02-21 11:58:00,63.4,55.0,29.76,SSE,151,7.0,16.0,75,0.00,,,0.00,167,weatherlink.com 1.10,2013-02-21 17:58:00,
2013-02-21 12:13:00,63.9,56.0,29.75,SSE,151,6.0,20.0,75,0.00,,,0.00,272,weatherlink.com 1.10,2013-02-21 18:13:00,
2013-02-21 12:28:00,64.1,56.0,29.75,SW,231,7.0,18.0,75,0.00,,,0.00,74,weatherlink.com 1.10,2013-02-21 18:28:00,
2013-02-21 12:43:00,64.1,56.0,29.73,SSE,150,2.0,10.0,75,0.00,,,0.00,67,weatherlink.com 1.10,2013-02-21 18:43:00,
2013-02-21 12:58:00,64.1,56.0,29.73,South,182,5.0,14.0,76,0.00,,,0.00,128,weatherlink.com 1.10,2013-02-21 18:58:00,
2013-02-21 13:13:00,64.8,57.0,29.71,South,171,5.0,9.0,76,0.00,,,0.00,86,weatherlink.com 1.10,2013-02-21 19:13:00,
2013-02-21 13:28:00,65.0,58.0,29.70,SSE,154,3.0,8.0,77,0.00,,,0.00,86,weatherlink.com 1.10,2013-02-21 19:28:00,
2013-02-21 13:43:00,64.9,58.0,29.71,South,175,2.0,9.0,78,0.00,,,0.00,46,weatherlink.com 1.10,2013-02-21 19:43:00,
2013-02-21 13:58:00,64.8,58.0,29.70,SSE,149,2.0,9.0,79,0.00,,,0.00,83,weatherlink.com 1.10,2013-02-21 19:58:00,
2013-02-21 14:13:00,64.8,58.0,29.69,North,4,5.0,7.0,79,0.00,,,0.00,49,weatherlink.com 1.10,2013-02-21 20:13:00,
2013-02-21 14:28:00,64.9,58.0,29.67,SE,138,2.0,6.0,79,0.00,,,0.00,42,weatherlink.com 1.10,2013-02-21 20:28:00,
2013-02-21 14:43:00,64.8,59.0,29.66,SSE,154,2.0,7.0,80,0.00,,,0.00,14,weatherlink.com 1.10,2013-02-21 20:43:00,
2013-02-21 14:58:00,64.6,58.0,29.64,SSE,150,4.0,6.0,80,0.00,,,0.00,14,weatherlink.com 1.10,2013-02-21 20:58:00,
2013-02-21 15:13:00,64.7,58.0,29.63,SE,141,1.0,8.0,80,0.01,,,0.01,12,weatherlink.com 1.10,2013-02-21 21:13:00,
2013-02-21 16:05:00,65.3,59.0,29.65,SSE,157,4.0,12.0,80,0.55,,,0.55,60,weatherlink.com 1.10,2013-02-21 22:05:00,
2013-02-21 16:13:00,65.1,59.0,29.68,West,268,2.0,10.0,80,0.54,,,0.55,26,weatherlink.com 1.10,2013-02-21 22:13:00,
2013-02-21 16:28:00,65.3,59.0,29.67,North,4,1.0,9.0,81,0.51,,,0.56,113,weatherlink.com 1.10,2013-02-21 22:28:00,
2013-02-21 16:43:00,65.6,60.0,29.67,SW,235,1.0,6.0,81,0.29,,,0.56,40,weatherlink.com 1.10,2013-02-21 22:43:00,
2013-02-21 16:58:00,65.5,60.0,29.68,SW,225,0.0,4.0,81,0.07,,,0.56,33,weatherlink.com 1.10,2013-02-21 22:58:00,
2013-02-21 17:13:00,65.7,60.0,29.70,South,182,0.0,5.0,81,0.01,,,0.56,25,weatherlink.com 1.10,2013-02-21 23:13:00,
2013-02-21 17:28:00,65.8,60.0,29.70,WSW,237,0.0,4.0,81,0.00,,,0.56,21,weatherlink.com 1.10,2013-02-21 23:28:00,
2013-02-21 17:43:00,65.8,60.0,29.71,SSW,204,0.0,4.0,81,0.00,,,0.56,5,weatherlink.com 1.10,2013-02-21 23:43:00,
2013-02-21 17:58:00,65.7,60.0,29.72,SSW,207,0.0,4.0,81,0.00,,,0.56,0,weatherlink.com 1.10,2013-02-21 23:58:00,
2013-02-21 18:14:00,65.5,60.0,29.73,SSW,209,0.0,1.0,81,0.00,,,0.56,0,weatherlink.com 1.10,2013-02-22 00:14:00,
2013-02-21 18:29:00,65.4,59.0,29.74,SSW,208,0.0,2.0,81,0.00,,,0.56,0,weatherlink.com 1.10,2013-02-22 00:29:00,
2013-02-21 18:44:00,64.9,59.0,29.75,SW,215,0.0,5.0,81,0.00,,,0.56,0,weatherlink.com 1.10,2013-02-22 00:44:00,
2013-02-21 18:58:00,64.5,59.0,29.77,SW,215,0.0,1.0,81,0.00,,,0.56,0,weatherlink.com 1.10,2013-02-22 00:58:00,
2013-02-21 19:13:00,63.6,58.0,29.77,SW,215,0.0,1.0,81,0.00,,,0.56,0,weatherlink.com 1.10,2013-02-22 01:13:00,
2013-02-21 19:28:00,62.6,57.0,29.78,SW,215,0.0,1.0,81,0.00,,,0.56,0,weatherlink.com 1.10,2013-02-22 01:28:00,
2013-02-21 19:44:00,61.4,56.0,29.78,SW,215,0.0,0.0,81,0.00,,,0.56,0,weatherlink.com 1.10,2013-02-22 01:44:00,
2013-02-21 19:58:00,60.8,55.0,29.79,SW,214,0.0,0.0,81,0.00,,,0.56,0,weatherlink.com 1.10,2013-02-22 01:58:00,
2013-02-21 20:13:00,60.4,55.0,29.79,SW,215,0.0,0.0,81,0.00,,,0.56,0,weatherlink.com 1.10,2013-02-22 02:13:00,
2013-02-21 20:28:00,59.4,54.0,29.81,SW,216,0.0,0.0,81,0.00,,,0.56,0,weatherlink.com 1.10,2013-02-22 02:28:00,
2013-02-21 20:43:00,59.3,54.0,29.81,North,4,0.0,0.0,81,0.00,,,0.56,0,weatherlink.com 1.10,2013-02-22 02:43:00,
2013-02-21 20:58:00,59.0,53.0,29.82,SW,215,0.0,0.0,81,0.00,,,0.56,0,weatherlink.com 1.10,2013-02-22 02:58:00,
2013-02-21 21:28:00,58.9,53.0,29.83,SW,214,0.0,0.0,81,0.00,,,0.56,0,weatherlink.com 1.10,2013-02-22 03:28:00,
2013-02-21 21:44:00,58.5,53.0,29.84,SW,215,0.0,0.0,81,0.00,,,0.56,0,weatherlink.com 1.10,2013-02-22 03:44:00,
2013-02-21 21:59:00,58.0,52.0,29.85,SW,215,1.0,2.0,81,0.00,,,0.56,0,weatherlink.com 1.10,2013-02-22 03:59:00,
2013-02-21 22:44:00,55.8,50.0,29.86,SW,216,4.0,5.0,82,0.00,,,0.56,0,weatherlink.com 1.10,2013-02-22 04:44:00,
2013-02-21 22:59:00,55.2,50.0,29.87,SW,215,0.0,5.0,82,0.00,,,0.56,0,weatherlink.com 1.10,2013-02-22 04:59:00,
2013-02-21 23:14:00,54.9,49.0,29.87,SW,217,0.0,0.0,81,0.00,,,0.56,0,weatherlink.com 1.10,2013-02-22 05:14:00,
2013-02-21 23:29:00,54.5,49.0,29.87,SW,215,0.0,0.0,82,0.00,,,0.56,0,weatherlink.com 1.10,2013-02-22 05:29:00,
2013-02-21 23:44:00,53.8,48.0,29.87,SW,215,0.0,4.0,82,0.00,,,0.56,0,weatherlink.com 1.10,2013-02-22 05:44:00,
2013-02-21 23:59:00,53.5,48.0,29.88,SW,215,0.0,0.0,82,0.00,,,0.56,0,weatherlink.com 1.10,2013-02-22 05:59:00,